sim
Sign-in with your pilot id or email,
or register
Callsign
Passwort

Schedule Details

Flight Number: DLH2461
Departure: Kittila Airport (EFKT) at 13:00
Arrival: Munich Airport (EDDM) at 16:15
Route: Lufthansa Passenger Schedule. Enter filed route here before submitting Pirep.

Weather Information
Getting current METAR information for EFKT 190920Z 32015G26KT 290V350 9999 FEW044 09/M01 Q1008
Getting current METAR information for EDDM 190920Z 08007KT 040V110 CAVOK 16/09 Q1020 NOSIG

Schedule Frequency

Route Map